National Weather Service Raw Text Product

Displaying AFOS PIL: TAFOTM Received: 2018-05-17 17:20 UTC


247 
FTUS43 KDMX 171720
TAFOTM
TAF
KOTM 171720Z 1718/1818 11012G18KT P6SM SCT250
     FM172300 12007KT P6SM SKC=